sensor_id;sensor_type;location;lat;lon;timestamp;P1;durP1;ratioP1;P2;durP2;ratioP2
5967;SDS011;3010;51.028;4.170;2023-05-23T00:01:41;81.00;;;34.40;;
5967;SDS011;3010;51.028;4.170;2023-05-23T00:04:07;68.20;;;29.43;;
5967;SDS011;3010;51.028;4.170;2023-05-23T00:06:34;62.17;;;28.70;;
5967;SDS011;3010;51.028;4.170;2023-05-23T00:09:01;60.60;;;28.17;;
5967;SDS011;3010;51.028;4.170;2023-05-23T00:11:27;60.40;;;28.30;;
5967;SDS011;3010;51.028;4.170;2023-05-23T00:13:54;57.63;;;28.00;;
5967;SDS011;3010;51.028;4.170;2023-05-23T00:16:20;59.83;;;28.27;;
5967;SDS011;3010;51.028;4.170;2023-05-23T00:18:47;64.90;;;32.87;;
5967;SDS011;3010;51.028;4.170;2023-05-23T00:21:15;59.17;;;28.07;;
5967;SDS011;3010;51.028;4.170;2023-05-23T00:23:42;57.23;;;27.43;;
5967;SDS011;3010;51.028;4.170;2023-05-23T00:26:08;63.83;;;27.07;;
5967;SDS011;3010;51.028;4.170;2023-05-23T00:28:36;57.27;;;28.63;;
5967;SDS011;3010;51.028;4.170;2023-05-23T00:31:01;55.63;;;26.13;;
5967;SDS011;3010;51.028;4.170;2023-05-23T00:33:28;57.20;;;26.40;;
5967;SDS011;3010;51.028;4.170;2023-05-23T00:35:54;54.23;;;27.30;;
5967;SDS011;3010;51.028;4.170;2023-05-23T00:38:21;50.70;;;26.07;;
5967;SDS011;3010;51.028;4.170;2023-05-23T00:40:48;57.13;;;26.43;;
5967;SDS011;3010;51.028;4.170;2023-05-23T00:43:14;54.57;;;26.20;;
5967;SDS011;3010;51.028;4.170;2023-05-23T00:45:41;54.27;;;25.53;;
5967;SDS011;3010;51.028;4.170;2023-05-23T00:48:07;55.17;;;25.67;;
5967;SDS011;3010;51.028;4.170;2023-05-23T00:50:34;50.33;;;26.90;;
5967;SDS011;3010;51.028;4.170;2023-05-23T00:53:00;54.30;;;25.33;;
5967;SDS011;3010;51.028;4.170;2023-05-23T00:55:27;52.00;;;27.70;;
5967;SDS011;3010;51.028;4.170;2023-05-23T00:57:54;59.27;;;30.60;;
5967;SDS011;3010;51.028;4.170;2023-05-23T01:00:20;58.97;;;28.87;;
5967;SDS011;3010;51.028;4.170;2023-05-23T01:02:48;48.43;;;26.77;;
5967;SDS011;3010;51.028;4.170;2023-05-23T01:05:17;52.97;;;28.03;;
5967;SDS011;3010;51.028;4.170;2023-05-23T01:07:46;52.23;;;26.70;;
5967;SDS011;3010;51.028;4.170;2023-05-23T01:10:12;49.37;;;25.07;;
5967;SDS011;3010;51.028;4.170;2023-05-23T01:15:06;40.97;;;24.17;;
5967;SDS011;3010;51.028;4.170;2023-05-23T01:17:34;39.10;;;22.23;;
5967;SDS011;3010;51.028;4.170;2023-05-23T01:20:03;35.53;;;21.30;;
5967;SDS011;3010;51.028;4.170;2023-05-23T01:25:16;33.63;;;19.83;;
5967;SDS011;3010;51.028;4.170;2023-05-23T01:27:44;31.10;;;17.37;;
5967;SDS011;3010;51.028;4.170;2023-05-23T01:30:09;27.40;;;17.73;;
5967;SDS011;3010;51.028;4.170;2023-05-23T01:32:35;26.40;;;19.63;;
5967;SDS011;3010;51.028;4.170;2023-05-23T01:35:02;23.17;;;17.37;;
5967;SDS011;3010;51.028;4.170;2023-05-23T01:37:29;23.13;;;17.07;;
5967;SDS011;3010;51.028;4.170;2023-05-23T01:39:55;19.27;;;14.83;;
5967;SDS011;3010;51.028;4.170;2023-05-23T01:42:22;27.03;;;16.80;;
5967;SDS011;3010;51.028;4.170;2023-05-23T01:44:48;20.40;;;15.10;;
5967;SDS011;3010;51.028;4.170;2023-05-23T01:47:15;27.27;;;18.70;;
5967;SDS011;3010;51.028;4.170;2023-05-23T01:49:42;25.33;;;17.90;;
5967;SDS011;3010;51.028;4.170;2023-05-23T01:52:08;32.55;;;18.90;;
5967;SDS011;3010;51.028;4.170;2023-05-23T01:54:36;30.12;;;18.55;;
5967;SDS011;3010;51.028;4.170;2023-05-23T01:57:01;33.47;;;17.50;;
5967;SDS011;3010;51.028;4.170;2023-05-23T01:59:28;36.33;;;18.97;;
5967;SDS011;3010;51.028;4.170;2023-05-23T02:01:55;35.57;;;17.77;;
5967;SDS011;3010;51.028;4.170;2023-05-23T02:04:21;34.57;;;17.33;;
5967;SDS011;3010;51.028;4.170;2023-05-23T02:06:48;36.17;;;17.10;;
5967;SDS011;3010;51.028;4.170;2023-05-23T02:09:14;36.93;;;16.50;;
5967;SDS011;3010;51.028;4.170;2023-05-23T02:11:41;29.73;;;16.50;;
5967;SDS011;3010;51.028;4.170;2023-05-23T02:14:08;36.50;;;17.40;;
5967;SDS011;3010;51.028;4.170;2023-05-23T02:16:34;31.60;;;18.33;;
5967;SDS011;3010;51.028;4.170;2023-05-23T02:19:01;25.90;;;16.43;;
5967;SDS011;3010;51.028;4.170;2023-05-23T02:21:27;28.73;;;17.03;;
5967;SDS011;3010;51.028;4.170;2023-05-23T02:23:54;29.10;;;16.63;;
5967;SDS011;3010;51.028;4.170;2023-05-23T02:26:21;26.97;;;16.37;;
5967;SDS011;3010;51.028;4.170;2023-05-23T02:28:47;27.13;;;16.40;;
5967;SDS011;3010;51.028;4.170;2023-05-23T02:31:14;27.50;;;17.13;;
5967;SDS011;3010;51.028;4.170;2023-05-23T02:33:40;30.27;;;19.17;;
5967;SDS011;3010;51.028;4.170;2023-05-23T02:36:07;29.80;;;18.43;;
5967;SDS011;3010;51.028;4.170;2023-05-23T02:38:34;33.23;;;17.83;;
5967;SDS011;3010;51.028;4.170;2023-05-23T02:41:00;29.97;;;17.80;;
5967;SDS011;3010;51.028;4.170;2023-05-23T02:43:27;34.50;;;19.00;;
5967;SDS011;3010;51.028;4.170;2023-05-23T02:45:53;33.80;;;18.60;;
5967;SDS011;3010;51.028;4.170;2023-05-23T02:48:20;40.27;;;19.77;;
5967;SDS011;3010;51.028;4.170;2023-05-23T02:50:46;36.83;;;19.20;;
5967;SDS011;3010;51.028;4.170;2023-05-23T02:53:13;40.27;;;20.60;;
5967;SDS011;3010;51.028;4.170;2023-05-23T02:55:40;40.93;;;20.50;;
5967;SDS011;3010;51.028;4.170;2023-05-23T02:58:06;35.63;;;20.57;;
5967;SDS011;3010;51.028;4.170;2023-05-23T03:00:33;41.13;;;22.17;;
5967;SDS011;3010;51.028;4.170;2023-05-23T03:02:59;45.23;;;21.60;;
5967;SDS011;3010;51.028;4.170;2023-05-23T03:05:26;33.63;;;20.93;;
5967;SDS011;3010;51.028;4.170;2023-05-23T03:07:53;50.90;;;22.57;;
5967;SDS011;3010;51.028;4.170;2023-05-23T03:10:19;41.23;;;23.20;;
5967;SDS011;3010;51.028;4.170;2023-05-23T03:12:46;44.50;;;23.27;;
5967;SDS011;3010;51.028;4.170;2023-05-23T03:15:12;41.73;;;23.33;;
5967;SDS011;3010;51.028;4.170;2023-05-23T03:17:39;50.47;;;23.67;;
5967;SDS011;3010;51.028;4.170;2023-05-23T03:20:06;39.60;;;23.23;;
5967;SDS011;3010;51.028;4.170;2023-05-23T03:22:32;42.37;;;23.43;;
5967;SDS011;3010;51.028;4.170;2023-05-23T03:24:59;43.27;;;23.50;;
5967;SDS011;3010;51.028;4.170;2023-05-23T03:27:25;39.67;;;23.20;;
5967;SDS011;3010;51.028;4.170;2023-05-23T03:29:52;44.17;;;25.57;;
5967;SDS011;3010;51.028;4.170;2023-05-23T03:32:19;52.77;;;23.57;;
5967;SDS011;3010;51.028;4.170;2023-05-23T03:34:45;35.17;;;21.83;;
5967;SDS011;3010;51.028;4.170;2023-05-23T03:37:12;32.00;;;20.63;;
5967;SDS011;3010;51.028;4.170;2023-05-23T03:39:38;30.40;;;20.83;;
5967;SDS011;3010;51.028;4.170;2023-05-23T03:42:05;32.53;;;20.33;;
5967;SDS011;3010;51.028;4.170;2023-05-23T03:44:32;31.03;;;18.87;;
5967;SDS011;3010;51.028;4.170;2023-05-23T03:46:58;33.67;;;19.90;;
5967;SDS011;3010;51.028;4.170;2023-05-23T03:49:25;30.43;;;18.57;;
5967;SDS011;3010;51.028;4.170;2023-05-23T03:51:51;35.03;;;18.57;;
5967;SDS011;3010;51.028;4.170;2023-05-23T03:54:18;25.47;;;17.87;;
5967;SDS011;3010;51.028;4.170;2023-05-23T03:56:44;30.97;;;17.97;;
5967;SDS011;3010;51.028;4.170;2023-05-23T03:59:11;25.60;;;17.03;;
5967;SDS011;3010;51.028;4.170;2023-05-23T04:01:38;23.63;;;15.70;;
5967;SDS011;3010;51.028;4.170;2023-05-23T04:04:04;24.13;;;16.43;;
5967;SDS011;3010;51.028;4.170;2023-05-23T04:06:31;22.77;;;14.30;;
5967;SDS011;3010;51.028;4.170;2023-05-23T04:08:57;22.73;;;15.10;;
5967;SDS011;3010;51.028;4.170;2023-05-23T04:11:24;17.50;;;13.77;;
5967;SDS011;3010;51.028;4.170;2023-05-23T04:13:51;24.87;;;15.10;;
5967;SDS011;3010;51.028;4.170;2023-05-23T04:16:17;23.97;;;14.80;;
5967;SDS011;3010;51.028;4.170;2023-05-23T04:18:44;29.13;;;15.00;;
5967;SDS011;3010;51.028;4.170;2023-05-23T04:21:10;25.10;;;15.53;;
5967;SDS011;3010;51.028;4.170;2023-05-23T04:23:37;24.33;;;15.83;;
5967;SDS011;3010;51.028;4.170;2023-05-23T04:26:04;22.70;;;15.27;;
5967;SDS011;3010;51.028;4.170;2023-05-23T04:28:30;25.30;;;16.57;;
5967;SDS011;3010;51.028;4.170;2023-05-23T04:30:57;28.63;;;17.03;;
5967;SDS011;3010;51.028;4.170;2023-05-23T04:33:23;30.90;;;18.07;;
5967;SDS011;3010;51.028;4.170;2023-05-23T04:35:50;40.30;;;18.10;;
5967;SDS011;3010;51.028;4.170;2023-05-23T04:38:17;35.53;;;17.47;;
5967;SDS011;3010;51.028;4.170;2023-05-23T04:40:43;35.53;;;14.00;;
5967;SDS011;3010;51.028;4.170;2023-05-23T04:43:10;31.87;;;14.60;;
5967;SDS011;3010;51.028;4.170;2023-05-23T04:45:36;28.20;;;13.37;;
5967;SDS011;3010;51.028;4.170;2023-05-23T04:48:03;28.17;;;12.17;;
5967;SDS011;3010;51.028;4.170;2023-05-23T04:50:29;25.00;;;11.90;;
5967;SDS011;3010;51.028;4.170;2023-05-23T04:52:56;26.43;;;11.57;;
5967;SDS011;3010;51.028;4.170;2023-05-23T04:55:23;27.83;;;12.10;;
5967;SDS011;3010;51.028;4.170;2023-05-23T04:57:49;32.37;;;12.57;;
5967;SDS011;3010;51.028;4.170;2023-05-23T05:00:16;33.37;;;14.83;;
5967;SDS011;3010;51.028;4.170;2023-05-23T05:02:43;32.03;;;12.83;;
5967;SDS011;3010;51.028;4.170;2023-05-23T05:05:09;30.13;;;13.20;;
5967;SDS011;3010;51.028;4.170;2023-05-23T05:07:36;28.83;;;13.20;;
5967;SDS011;3010;51.028;4.170;2023-05-23T05:10:02;37.03;;;14.27;;
5967;SDS011;3010;51.028;4.170;2023-05-23T05:12:29;33.53;;;13.40;;
5967;SDS011;3010;51.028;4.170;2023-05-23T05:14:56;30.00;;;12.37;;
5967;SDS011;3010;51.028;4.170;2023-05-23T05:17:22;37.57;;;14.90;;
5967;SDS011;3010;51.028;4.170;2023-05-23T05:19:49;30.33;;;12.73;;
5967;SDS011;3010;51.028;4.170;2023-05-23T05:22:15;36.33;;;13.30;;
5967;SDS011;3010;51.028;4.170;2023-05-23T05:24:42;30.73;;;13.30;;
5967;SDS011;3010;51.028;4.170;2023-05-23T05:27:08;36.93;;;12.83;;
5967;SDS011;3010;51.028;4.170;2023-05-23T05:29:35;39.03;;;13.83;;
5967;SDS011;3010;51.028;4.170;2023-05-23T05:32:02;36.13;;;13.40;;
5967;SDS011;3010;51.028;4.170;2023-05-23T05:34:28;36.23;;;14.53;;
5967;SDS011;3010;51.028;4.170;2023-05-23T05:36:55;41.93;;;14.17;;
5967;SDS011;3010;51.028;4.170;2023-05-23T05:39:22;27.43;;;12.90;;
5967;SDS011;3010;51.028;4.170;2023-05-23T05:41:48;36.17;;;14.20;;
5967;SDS011;3010;51.028;4.170;2023-05-23T05:44:15;32.20;;;13.83;;
5967;SDS011;3010;51.028;4.170;2023-05-23T05:46:41;28.70;;;14.50;;
5967;SDS011;3010;51.028;4.170;2023-05-23T05:49:08;25.20;;;13.50;;
5967;SDS011;3010;51.028;4.170;2023-05-23T05:51:34;26.53;;;12.87;;
5967;SDS011;3010;51.028;4.170;2023-05-23T05:54:01;34.03;;;15.10;;
5967;SDS011;3010;51.028;4.170;2023-05-23T05:56:28;23.17;;;13.00;;
5967;SDS011;3010;51.028;4.170;2023-05-23T05:58:54;27.33;;;12.37;;
5967;SDS011;3010;51.028;4.170;2023-05-23T06:01:21;25.27;;;12.00;;
5967;SDS011;3010;51.028;4.170;2023-05-23T06:03:47;21.27;;;10.40;;
5967;SDS011;3010;51.028;4.170;2023-05-23T06:06:14;19.47;;;10.33;;
5967;SDS011;3010;51.028;4.170;2023-05-23T06:08:41;18.80;;;10.20;;
5967;SDS011;3010;51.028;4.170;2023-05-23T06:11:08;16.30;;;9.13;;
5967;SDS011;3010;51.028;4.170;2023-05-23T06:13:35;17.20;;;8.77;;
5967;SDS011;3010;51.028;4.170;2023-05-23T06:16:01;17.43;;;8.67;;
5967;SDS011;3010;51.028;4.170;2023-05-23T06:18:28;16.93;;;7.73;;
5967;SDS011;3010;51.028;4.170;2023-05-23T06:20:54;15.03;;;7.33;;
5967;SDS011;3010;51.028;4.170;2023-05-23T06:23:21;16.23;;;7.70;;
5967;SDS011;3010;51.028;4.170;2023-05-23T06:25:47;14.60;;;8.57;;
5967;SDS011;3010;51.028;4.170;2023-05-23T06:28:14;14.13;;;7.87;;
5967;SDS011;3010;51.028;4.170;2023-05-23T06:30:41;9.50;;;7.07;;
5967;SDS011;3010;51.028;4.170;2023-05-23T06:33:07;12.50;;;6.87;;
5967;SDS011;3010;51.028;4.170;2023-05-23T06:35:34;14.30;;;7.23;;
5967;SDS011;3010;51.028;4.170;2023-05-23T06:38:00;14.03;;;8.03;;
5967;SDS011;3010;51.028;4.170;2023-05-23T06:40:27;16.33;;;7.43;;
5967;SDS011;3010;51.028;4.170;2023-05-23T06:42:54;12.40;;;7.83;;
5967;SDS011;3010;51.028;4.170;2023-05-23T06:45:20;15.27;;;8.83;;
5967;SDS011;3010;51.028;4.170;2023-05-23T06:47:47;16.27;;;8.87;;
5967;SDS011;3010;51.028;4.170;2023-05-23T06:50:13;18.90;;;8.93;;
5967;SDS011;3010;51.028;4.170;2023-05-23T06:52:40;13.77;;;9.10;;
5967;SDS011;3010;51.028;4.170;2023-05-23T06:55:07;14.17;;;9.33;;
5967;SDS011;3010;51.028;4.170;2023-05-23T06:57:33;19.07;;;9.37;;
5967;SDS011;3010;51.028;4.170;2023-05-23T07:00:00;16.00;;;7.30;;
5967;SDS011;3010;51.028;4.170;2023-05-23T07:02:26;13.00;;;7.90;;
5967;SDS011;3010;51.028;4.170;2023-05-23T07:04:53;18.57;;;9.50;;
5967;SDS011;3010;51.028;4.170;2023-05-23T07:07:19;18.43;;;9.10;;
5967;SDS011;3010;51.028;4.170;2023-05-23T07:09:46;20.60;;;9.57;;
5967;SDS011;3010;51.028;4.170;2023-05-23T07:12:13;17.10;;;9.27;;
5967;SDS011;3010;51.028;4.170;2023-05-23T07:14:39;14.63;;;7.67;;
5967;SDS011;3010;51.028;4.170;2023-05-23T07:17:06;15.90;;;8.77;;
5967;SDS011;3010;51.028;4.170;2023-05-23T07:19:32;13.87;;;7.70;;
5967;SDS011;3010;51.028;4.170;2023-05-23T07:21:59;16.20;;;8.37;;
5967;SDS011;3010;51.028;4.170;2023-05-23T07:24:26;12.63;;;6.80;;
5967;SDS011;3010;51.028;4.170;2023-05-23T07:26:52;13.33;;;7.77;;
5967;SDS011;3010;51.028;4.170;2023-05-23T07:29:19;11.20;;;7.80;;
5967;SDS011;3010;51.028;4.170;2023-05-23T07:31:45;11.57;;;7.37;;
5967;SDS011;3010;51.028;4.170;2023-05-23T07:34:12;17.73;;;7.90;;
5967;SDS011;3010;51.028;4.170;2023-05-23T07:36:38;19.63;;;9.20;;
5967;SDS011;3010;51.028;4.170;2023-05-23T07:39:05;16.60;;;8.40;;
5967;SDS011;3010;51.028;4.170;2023-05-23T07:41:32;17.57;;;8.67;;
5967;SDS011;3010;51.028;4.170;2023-05-23T07:43:58;15.57;;;8.90;;
5967;SDS011;3010;51.028;4.170;2023-05-23T07:46:25;15.70;;;7.90;;
5967;SDS011;3010;51.028;4.170;2023-05-23T07:48:51;12.07;;;8.50;;
5967;SDS011;3010;51.028;4.170;2023-05-23T07:51:18;17.00;;;8.77;;
5967;SDS011;3010;51.028;4.170;2023-05-23T07:53:45;12.43;;;7.70;;
5967;SDS011;3010;51.028;4.170;2023-05-23T07:56:11;10.33;;;7.10;;
5967;SDS011;3010;51.028;4.170;2023-05-23T07:58:38;10.83;;;6.80;;
5967;SDS011;3010;51.028;4.170;2023-05-23T08:01:04;17.33;;;8.03;;
5967;SDS011;3010;51.028;4.170;2023-05-23T08:03:31;16.27;;;7.80;;
5967;SDS011;3010;51.028;4.170;2023-05-23T08:05:58;15.30;;;7.70;;
5967;SDS011;3010;51.028;4.170;2023-05-23T08:08:24;13.10;;;7.60;;
5967;SDS011;3010;51.028;4.170;2023-05-23T08:10:51;13.83;;;7.13;;
5967;SDS011;3010;51.028;4.170;2023-05-23T08:13:17;14.47;;;8.00;;
5967;SDS011;3010;51.028;4.170;2023-05-23T08:15:44;14.87;;;8.23;;
5967;SDS011;3010;51.028;4.170;2023-05-23T08:18:10;14.57;;;7.93;;
5967;SDS011;3010;51.028;4.170;2023-05-23T08:20:37;17.53;;;7.77;;
5967;SDS011;3010;51.028;4.170;2023-05-23T08:23:04;12.67;;;6.80;;
5967;SDS011;3010;51.028;4.170;2023-05-23T08:25:30;10.50;;;7.13;;
5967;SDS011;3010;51.028;4.170;2023-05-23T08:27:57;11.13;;;7.30;;
5967;SDS011;3010;51.028;4.170;2023-05-23T08:30:24;9.07;;;5.63;;
5967;SDS011;3010;51.028;4.170;2023-05-23T08:32:54;14.80;;;5.87;;
5967;SDS011;3010;51.028;4.170;2023-05-23T08:35:17;7.33;;;5.40;;
5967;SDS011;3010;51.028;4.170;2023-05-23T08:37:43;11.77;;;6.37;;
5967;SDS011;3010;51.028;4.170;2023-05-23T08:40:11;10.47;;;6.10;;
5967;SDS011;3010;51.028;4.170;2023-05-23T08:42:36;11.80;;;6.60;;
5967;SDS011;3010;51.028;4.170;2023-05-23T08:45:03;10.13;;;6.47;;
5967;SDS011;3010;51.028;4.170;2023-05-23T08:47:29;7.50;;;5.63;;
5967;SDS011;3010;51.028;4.170;2023-05-23T08:49:56;7.20;;;5.10;;
5967;SDS011;3010;51.028;4.170;2023-05-23T08:52:23;7.23;;;4.97;;
5967;SDS011;3010;51.028;4.170;2023-05-23T08:54:49;10.77;;;5.33;;
5967;SDS011;3010;51.028;4.170;2023-05-23T08:57:16;9.57;;;4.77;;
5967;SDS011;3010;51.028;4.170;2023-05-23T08:59:42;10.70;;;5.40;;
5967;SDS011;3010;51.028;4.170;2023-05-23T09:02:09;9.33;;;5.03;;
5967;SDS011;3010;51.028;4.170;2023-05-23T09:04:36;6.20;;;4.60;;
5967;SDS011;3010;51.028;4.170;2023-05-23T09:07:02;8.13;;;4.87;;
5967;SDS011;3010;51.028;4.170;2023-05-23T09:09:29;7.07;;;4.83;;
5967;SDS011;3010;51.028;4.170;2023-05-23T09:11:55;4.77;;;4.30;;
5967;SDS011;3010;51.028;4.170;2023-05-23T09:14:22;7.87;;;5.60;;
5967;SDS011;3010;51.028;4.170;2023-05-23T09:16:48;5.70;;;4.97;;
5967;SDS011;3010;51.028;4.170;2023-05-23T09:19:17;5.20;;;4.70;;
5967;SDS011;3010;51.028;4.170;2023-05-23T09:21:42;11.27;;;6.07;;
5967;SDS011;3010;51.028;4.170;2023-05-23T09:24:08;8.73;;;5.00;;
5967;SDS011;3010;51.028;4.170;2023-05-23T09:26:35;6.73;;;5.20;;
5967;SDS011;3010;51.028;4.170;2023-05-23T09:29:04;7.70;;;4.67;;
5967;SDS011;3010;51.028;4.170;2023-05-23T09:31:28;7.60;;;4.57;;
5967;SDS011;3010;51.028;4.170;2023-05-23T09:33:55;6.70;;;4.03;;
5967;SDS011;3010;51.028;4.170;2023-05-23T09:36:21;6.27;;;4.23;;
5967;SDS011;3010;51.028;4.170;2023-05-23T09:38:48;6.20;;;4.53;;
5967;SDS011;3010;51.028;4.170;2023-05-23T09:41:14;9.57;;;4.10;;
5967;SDS011;3010;51.028;4.170;2023-05-23T09:43:53;6.13;;;3.80;;
5967;SDS011;3010;51.028;4.170;2023-05-23T09:46:20;6.60;;;4.00;;
5967;SDS011;3010;51.028;4.170;2023-05-23T09:48:47;6.53;;;3.80;;
5967;SDS011;3010;51.028;4.170;2023-05-23T09:51:16;5.73;;;3.47;;
5967;SDS011;3010;51.028;4.170;2023-05-23T09:53:42;7.30;;;4.00;;
5967;SDS011;3010;51.028;4.170;2023-05-23T09:56:08;8.60;;;4.60;;
5967;SDS011;3010;51.028;4.170;2023-05-23T09:58:36;8.27;;;4.15;;
5967;SDS011;3010;51.028;4.170;2023-05-23T10:01:02;8.33;;;4.20;;
5967;SDS011;3010;51.028;4.170;2023-05-23T10:03:33;9.20;;;4.05;;
5967;SDS011;3010;51.028;4.170;2023-05-23T10:05:56;6.67;;;4.47;;
5967;SDS011;3010;51.028;4.170;2023-05-23T10:08:23;10.43;;;3.77;;
5967;SDS011;3010;51.028;4.170;2023-05-23T10:13:24;10.48;;;3.67;;
5967;SDS011;3010;51.028;4.170;2023-05-23T10:15:50;8.90;;;3.50;;
5967;SDS011;3010;51.028;4.170;2023-05-23T10:18:19;7.17;;;3.70;;
5967;SDS011;3010;51.028;4.170;2023-05-23T10:20:46;10.50;;;3.67;;
5967;SDS011;3010;51.028;4.170;2023-05-23T10:23:10;11.73;;;3.70;;
5967;SDS011;3010;51.028;4.170;2023-05-23T10:25:37;9.00;;;3.70;;
5967;SDS011;3010;51.028;4.170;2023-05-23T10:28:03;11.07;;;3.53;;
5967;SDS011;3010;51.028;4.170;2023-05-23T10:30:30;9.37;;;3.77;;
5967;SDS011;3010;51.028;4.170;2023-05-23T10:32:56;10.20;;;3.17;;
5967;SDS011;3010;51.028;4.170;2023-05-23T10:38:21;11.23;;;3.60;;
5967;SDS011;3010;51.028;4.170;2023-05-23T10:40:53;12.07;;;3.83;;
5967;SDS011;3010;51.028;4.170;2023-05-23T10:43:18;11.43;;;4.33;;
5967;SDS011;3010;51.028;4.170;2023-05-23T10:45:50;8.37;;;3.10;;
5967;SDS011;3010;51.028;4.170;2023-05-23T10:48:21;5.57;;;3.20;;
5967;SDS011;3010;51.028;4.170;2023-05-23T10:51:02;8.97;;;3.57;;
5967;SDS011;3010;51.028;4.170;2023-05-23T10:53:38;9.57;;;3.80;;
5967;SDS011;3010;51.028;4.170;2023-05-23T10:56:04;9.37;;;3.90;;
5967;SDS011;3010;51.028;4.170;2023-05-23T10:58:33;10.50;;;4.17;;
5967;SDS011;3010;51.028;4.170;2023-05-23T11:01:00;11.13;;;2.90;;
5967;SDS011;3010;51.028;4.170;2023-05-23T11:03:29;9.70;;;3.85;;
5967;SDS011;3010;51.028;4.170;2023-05-23T11:05:58;8.73;;;3.57;;
5967;SDS011;3010;51.028;4.170;2023-05-23T11:08:25;13.83;;;4.13;;
5967;SDS011;3010;51.028;4.170;2023-05-23T11:10:52;10.70;;;3.63;;
5967;SDS011;3010;51.028;4.170;2023-05-23T11:13:24;10.50;;;3.63;;
5967;SDS011;3010;51.028;4.170;2023-05-23T11:15:50;15.60;;;4.23;;
5967;SDS011;3010;51.028;4.170;2023-05-23T11:18:25;10.03;;;4.13;;
5967;SDS011;3010;51.028;4.170;2023-05-23T11:20:50;14.67;;;4.00;;
5967;SDS011;3010;51.028;4.170;2023-05-23T11:23:16;12.57;;;3.30;;
5967;SDS011;3010;51.028;4.170;2023-05-23T11:25:50;11.97;;;3.63;;
5967;SDS011;3010;51.028;4.170;2023-05-23T11:28:15;11.52;;;4.00;;
5967;SDS011;3010;51.028;4.170;2023-05-23T11:30:42;13.30;;;3.67;;
5967;SDS011;3010;51.028;4.170;2023-05-23T11:33:09;16.80;;;4.80;;
5967;SDS011;3010;51.028;4.170;2023-05-23T11:35:35;11.90;;;3.67;;
5967;SDS011;3010;51.028;4.170;2023-05-23T11:38:03;9.87;;;3.67;;
5967;SDS011;3010;51.028;4.170;2023-05-23T11:40:29;9.37;;;3.63;;
5967;SDS011;3010;51.028;4.170;2023-05-23T11:42:58;6.30;;;3.50;;
5967;SDS011;3010;51.028;4.170;2023-05-23T11:45:25;13.10;;;3.87;;
5967;SDS011;3010;51.028;4.170;2023-05-23T11:47:51;12.52;;;3.72;;
5967;SDS011;3010;51.028;4.170;2023-05-23T11:50:17;9.00;;;3.73;;
5967;SDS011;3010;51.028;4.170;2023-05-23T11:52:47;9.60;;;3.80;;
5967;SDS011;3010;51.028;4.170;2023-05-23T11:55:13;8.93;;;3.50;;
5967;SDS011;3010;51.028;4.170;2023-05-23T11:57:40;8.93;;;4.30;;
5967;SDS011;3010;51.028;4.170;2023-05-23T12:00:08;12.90;;;4.00;;
5967;SDS011;3010;51.028;4.170;2023-05-23T12:02:41;11.93;;;3.47;;
5967;SDS011;3010;51.028;4.170;2023-05-23T12:05:10;9.07;;;3.70;;
5967;SDS011;3010;51.028;4.170;2023-05-23T12:07:40;10.57;;;4.13;;
5967;SDS011;3010;51.028;4.170;2023-05-23T12:10:06;6.17;;;3.23;;
5967;SDS011;3010;51.028;4.170;2023-05-23T12:12:33;12.80;;;3.90;;
5967;SDS011;3010;51.028;4.170;2023-05-23T12:14:59;13.87;;;4.40;;
5967;SDS011;3010;51.028;4.170;2023-05-23T12:17:26;11.65;;;4.20;;
5967;SDS011;3010;51.028;4.170;2023-05-23T12:19:53;7.17;;;3.97;;
5967;SDS011;3010;51.028;4.170;2023-05-23T12:22:22;9.85;;;3.60;;
5967;SDS011;3010;51.028;4.170;2023-05-23T12:24:54;10.43;;;3.43;;
5967;SDS011;3010;51.028;4.170;2023-05-23T12:27:27;14.20;;;4.18;;
5967;SDS011;3010;51.028;4.170;2023-05-23T12:30:03;10.50;;;3.30;;
5967;SDS011;3010;51.028;4.170;2023-05-23T12:32:32;15.80;;;3.67;;
5967;SDS011;3010;51.028;4.170;2023-05-23T12:34:59;10.03;;;3.47;;
5967;SDS011;3010;51.028;4.170;2023-05-23T12:37:25;14.27;;;4.20;;
5967;SDS011;3010;51.028;4.170;2023-05-23T12:39:52;12.03;;;3.77;;
5967;SDS011;3010;51.028;4.170;2023-05-23T12:42:19;12.70;;;3.60;;
5967;SDS011;3010;51.028;4.170;2023-05-23T12:44:48;16.77;;;4.30;;
5967;SDS011;3010;51.028;4.170;2023-05-23T12:47:12;12.02;;;3.87;;
5967;SDS011;3010;51.028;4.170;2023-05-23T12:49:38;21.60;;;4.53;;
5967;SDS011;3010;51.028;4.170;2023-05-23T12:52:05;10.77;;;3.90;;
5967;SDS011;3010;51.028;4.170;2023-05-23T12:54:32;9.73;;;3.27;;
5967;SDS011;3010;51.028;4.170;2023-05-23T12:56:58;13.43;;;3.63;;
5967;SDS011;3010;51.028;4.170;2023-05-23T12:59:25;12.57;;;4.30;;
5967;SDS011;3010;51.028;4.170;2023-05-23T13:01:51;11.53;;;3.57;;
5967;SDS011;3010;51.028;4.170;2023-05-23T13:04:18;11.60;;;3.40;;
5967;SDS011;3010;51.028;4.170;2023-05-23T13:06:44;13.80;;;3.73;;
5967;SDS011;3010;51.028;4.170;2023-05-23T13:09:11;14.10;;;4.00;;
5967;SDS011;3010;51.028;4.170;2023-05-23T13:11:38;8.97;;;3.90;;
5967;SDS011;3010;51.028;4.170;2023-05-23T13:14:04;7.47;;;3.47;;
5967;SDS011;3010;51.028;4.170;2023-05-23T13:16:31;13.63;;;3.80;;
5967;SDS011;3010;51.028;4.170;2023-05-23T13:18:57;9.87;;;3.20;;
5967;SDS011;3010;51.028;4.170;2023-05-23T13:21:24;13.00;;;3.43;;
5967;SDS011;3010;51.028;4.170;2023-05-23T13:23:51;9.93;;;3.70;;
5967;SDS011;3010;51.028;4.170;2023-05-23T13:26:17;7.37;;;3.03;;
5967;SDS011;3010;51.028;4.170;2023-05-23T13:28:44;11.50;;;3.57;;
5967;SDS011;3010;51.028;4.170;2023-05-23T13:31:10;9.17;;;3.53;;
5967;SDS011;3010;51.028;4.170;2023-05-23T13:33:37;8.10;;;3.03;;
5967;SDS011;3010;51.028;4.170;2023-05-23T13:36:04;12.37;;;4.03;;
5967;SDS011;3010;51.028;4.170;2023-05-23T13:38:30;10.60;;;4.10;;
5967;SDS011;3010;51.028;4.170;2023-05-23T13:40:57;10.47;;;3.40;;
5967;SDS011;3010;51.028;4.170;2023-05-23T13:43:23;13.43;;;3.50;;
5967;SDS011;3010;51.028;4.170;2023-05-23T13:45:50;7.83;;;2.93;;
5967;SDS011;3010;51.028;4.170;2023-05-23T13:48:16;9.27;;;3.23;;
5967;SDS011;3010;51.028;4.170;2023-05-23T13:50:43;9.50;;;3.42;;
5967;SDS011;3010;51.028;4.170;2023-05-23T13:53:10;9.93;;;3.80;;
5967;SDS011;3010;51.028;4.170;2023-05-23T13:55:36;10.50;;;3.47;;
5967;SDS011;3010;51.028;4.170;2023-05-23T13:58:03;10.68;;;3.75;;
5967;SDS011;3010;51.028;4.170;2023-05-23T14:00:29;12.57;;;3.97;;
5967;SDS011;3010;51.028;4.170;2023-05-23T14:02:56;11.87;;;3.00;;
5967;SDS011;3010;51.028;4.170;2023-05-23T14:05:22;10.30;;;3.50;;
5967;SDS011;3010;51.028;4.170;2023-05-23T14:07:49;8.63;;;3.50;;
5967;SDS011;3010;51.028;4.170;2023-05-23T14:10:16;9.73;;;3.70;;
5967;SDS011;3010;51.028;4.170;2023-05-23T14:12:42;9.60;;;3.00;;
5967;SDS011;3010;51.028;4.170;2023-05-23T14:15:09;11.93;;;2.93;;
5967;SDS011;3010;51.028;4.170;2023-05-23T14:17:36;9.17;;;3.53;;
5967;SDS011;3010;51.028;4.170;2023-05-23T14:20:02;6.23;;;3.03;;
5967;SDS011;3010;51.028;4.170;2023-05-23T14:22:29;11.17;;;3.10;;
5967;SDS011;3010;51.028;4.170;2023-05-23T14:24:56;11.03;;;3.47;;
5967;SDS011;3010;51.028;4.170;2023-05-23T14:27:22;11.33;;;3.80;;
5967;SDS011;3010;51.028;4.170;2023-05-23T14:29:49;7.83;;;3.43;;
5967;SDS011;3010;51.028;4.170;2023-05-23T14:32:15;9.10;;;3.20;;
5967;SDS011;3010;51.028;4.170;2023-05-23T14:34:42;9.77;;;3.40;;
5967;SDS011;3010;51.028;4.170;2023-05-23T14:37:08;11.43;;;3.50;;
5967;SDS011;3010;51.028;4.170;2023-05-23T14:39:35;8.73;;;3.60;;
5967;SDS011;3010;51.028;4.170;2023-05-23T14:42:02;11.17;;;3.40;;
5967;SDS011;3010;51.028;4.170;2023-05-23T14:44:28;8.47;;;2.90;;
5967;SDS011;3010;51.028;4.170;2023-05-23T14:46:55;10.23;;;3.53;;
5967;SDS011;3010;51.028;4.170;2023-05-23T14:49:21;7.33;;;2.97;;
5967;SDS011;3010;51.028;4.170;2023-05-23T14:51:48;11.43;;;3.40;;
5967;SDS011;3010;51.028;4.170;2023-05-23T14:54:15;9.90;;;3.30;;
5967;SDS011;3010;51.028;4.170;2023-05-23T14:56:41;12.83;;;3.30;;
5967;SDS011;3010;51.028;4.170;2023-05-23T14:59:08;8.10;;;3.17;;
5967;SDS011;3010;51.028;4.170;2023-05-23T15:01:34;7.90;;;2.93;;
5967;SDS011;3010;51.028;4.170;2023-05-23T15:04:01;8.10;;;3.00;;
5967;SDS011;3010;51.028;4.170;2023-05-23T15:06:28;8.40;;;3.17;;